Главная страница
METAR-TAF:

METAR-TAF

Аэропорты :

Sørkjosen, Норвегия

широта: 69-47N, долгота: 020-58E, высота над уровнем моря: 0 м

Текущие метеонаблюдения

Эта сводка был подготовлена 26 минут назад, в 14:50 UTC
Ветер 9 Узел от северный
Температура 14°C
Влажность 63%
Давление 1015 hPa
Видимость 10 км и более

METAR: ENSR 221450Z AUTO 35009KT 9999 FEW049/// 14/07 Q1015 RMK WIND RWY 32 34009KT WIND 1119FT 05004KT

Время: 17:16 (15:16 UTC)

Прогноз

Эта сводка был подготовлена 28 часа и 16 минут назад, в 11:00 UTC
Прогноз действительный с 21-го 12 UTC до 21-го 19 UTC
Ветер 9 Узел от северно-северо-западный
Видимость 10 км и более
небольшая облачность на высоте 2500 фута
Рассеянная облачность на высоте 4000 фута

TAF: ENSR 211100Z 2112/2119 34009KT 9999 FEW025 BKN040

Метеонаблюдения и прогнозы для более 4000 аэропортов (сводки METAR и TAF).

Имеющиеся станции представлены на карте желтыми и красными точками.

Чтобы увидеть название станции, наведите на нее мышь.

Затем щелкните, чтобы увидеть метеонаблюдения и метеопрогнозы.

Управление картой: чтобы увеличить масштаб, щелкните зеленые кнопки с черным крестиком; чтобы уменьшить масштаб, щелкните зеленую кнопку с тире; для просмотра соседних карт щелкайте зеленые стрелки.


METAR-TAF: